首页
METAR-TAF:

METAR-TAF

机场 :

皮斯里弗, 艾伯塔, 加拿大

纬度: 56-14N, 经度: 117-26W, 海拔: 571米

当前天气观测

该预报发布于10分钟前的09:00 UTC
静风
温度 3°C
湿度 93%
气压 992 hPa
能見度: 24.1公里
阴天层高于10000英尺

METAR: CYPE 170900Z 00000KT 15SM OVC100 03/02 A2928 RMK AC8 SLP934

时间: 03:10 (09:10 UTC)

预报

该预报发布于2小时和32分钟前的06:38 UTC
预报有效从17日的 07点(UTC)到 17日的 19点(UTC)
风速6节,风向
能見度: 10公里
散云层高于6000英尺
多云层高于20000英尺
从 17日的 0800点(UTC)
风速5节,风向东转东北
能見度: 10公里
多云层高于6000英尺
阴天层高于12000英尺
短暂存在
从 17日的 08点(UTC)到 17日的 17点(UTC)
能見度: 10公里
小雨
成为
从 17日的 13点(UTC)到 17日的 15点(UTC)
风速8节,风向西
从 17日的 1700点(UTC)
风速8节,风向西转西南
能見度: 10公里
天空无云

TAF: CYPE 170638Z 1707/1719 08006KT P6SM SCT060 BKN200 FM170800 07005KT P6SM BKN060 OVC120 TEMPO 1708/1717 P6SM -RA BECMG 1713/1715 26008KT FM171700 24008KT P6SM SKC RMK NXT FCST BY 171300Z

超过4000个机场的气象观测和天气预报(METAR&TAF报告)。

可查询的气象台以黄色和红色小点在地图上表示。

将鼠标移到小点上方,可查看气象台名称。

然后点击查看天气观测和预报。

如需切换地图:点击带黑十字的绿色按钮放大地图;点击带横线的绿色按钮缩小地图;或者点击绿色箭头查看邻近地区的地图。


METAR-TAF: